Time;durP1;ratioP1;P1;durP2;ratioP2;P2;SDS_P1;SDS_P2;PMS_P1;PMS_P2;Temp;Humidity;BMP_temperature;BMP_pressure;BME280_temperature;BME280_humidity;BME280_pressure;Samples;Min_cycle;Max_cycle;Signal;HPM_P1;HPM_P2
2023/10/27 00:01:43;;;;;;;;;;;13.30;69.30;;;8.85;100.00;93497.69;5010785;28;19913;-47
2023/10/27 00:04:09;;;;;;;;;;;13.30;69.30;;;8.83;100.00;93504.38;5010896;28;19947;-47
2023/10/27 00:06:35;;;;;;;;;;;13.30;69.20;;;8.83;100.00;93497.19;5006602;28;19935;-46
2023/10/27 00:09:02;;;;;;;;;;;13.20;69.20;;;8.84;100.00;93505.94;5011809;28;20368;-48
2023/10/27 00:11:28;;;;;;;;;;;13.20;69.20;;;8.83;100.00;93499.84;5009159;28;19915;-46
2023/10/27 00:13:55;;;;;;;;;;;13.20;69.30;;;8.76;100.00;93497.63;5011762;28;19909;-46
2023/10/27 00:16:21;;;;;;;;;;;13.20;69.30;;;8.78;100.00;93508.72;5010960;28;20384;-49
2023/10/27 00:18:47;;;;;;;;;;;13.20;69.30;;;8.79;100.00;93506.84;5011875;28;19913;-46
2023/10/27 00:21:13;;;;;;;;;;;13.20;69.30;;;8.78;100.00;93505.28;5011305;28;20263;-49
2023/10/27 00:23:39;;;;;;;;;;;13.20;69.40;;;8.76;100.00;93510.91;5010431;28;20358;-48
2023/10/27 00:26:05;;;;;;;;;;;13.20;69.30;;;8.76;100.00;93513.53;5010000;28;20299;-50
2023/10/27 00:28:31;;;;;;;;;;;13.20;69.40;;;8.76;100.00;93510.13;5010890;28;19909;-51
2023/10/27 00:31:02;;;;;;;;;;;13.20;69.50;;;8.75;100.00;93514.66;5011481;28;19916;-46
2023/10/27 00:33:28;;;;;;;;;;;13.10;69.50;;;8.75;100.00;93527.91;5011820;28;20011;-45
2023/10/27 00:35:54;;;;;;;;;;;13.10;70.30;;;8.74;100.00;93513.09;5011003;28;19999;-49
2023/10/27 00:38:21;;;;;;;;;;;13.10;69.60;;;8.78;100.00;93502.63;5011835;28;20019;-46
2023/10/27 00:40:47;;;;;;;;;;;13.10;69.60;;;8.73;100.00;93502.75;5010245;28;20287;-48
2023/10/27 00:43:18;;;;;;;;;;;13.10;69.60;;;8.73;100.00;93502.75;5011504;28;19913;-47
2023/10/27 00:45:50;;;;;;;;;;;13.10;69.70;;;8.76;100.00;93499.50;5011796;28;20402;-47
2023/10/27 00:48:18;;;;;;;;;;;13.10;69.70;;;8.77;100.00;93503.72;5011168;28;19971;-45
2023/10/27 00:50:47;;;;;;;;;;;13.20;69.80;;;8.76;100.00;93500.28;5012038;28;19909;-49
2023/10/27 00:53:17;;;;;;;;;;;13.10;69.70;;;8.77;100.00;93507.16;5008673;28;20310;-48
2023/10/27 00:55:43;;;;;;;;;;;13.20;69.80;;;8.77;100.00;93515.13;5008123;28;19916;-48
2023/10/27 00:58:11;;;;;;;;;;;13.20;69.80;;;8.75;100.00;93521.81;5001963;28;19910;-48
2023/10/27 01:00:37;;;;;;;;;;;13.10;69.70;;;8.65;100.00;93527.34;5003825;28;19920;-50
2023/10/27 01:03:04;;;;;;;;;;;13.10;69.80;;;8.66;100.00;93536.91;5009945;28;19913;-50
2023/10/27 01:05:30;;;;;;;;;;;13.10;69.90;;;8.68;100.00;93513.50;5010447;28;19915;-52
2023/10/27 01:07:57;;;;;;;;;;;13.10;70.00;;;8.71;100.00;93497.75;5011284;28;20050;-46
2023/10/27 01:10:23;;;;;;;;;;;13.10;70.00;;;8.74;100.00;93486.53;5009350;28;19909;-46
2023/10/27 01:12:50;;;;;;;;;;;13.10;70.00;;;8.72;100.00;93475.44;5011268;28;19913;-46
2023/10/27 01:15:17;;;;;;;;;;;13.10;70.00;;;8.73;100.00;93458.41;5011330;28;19920;-47
2023/10/27 01:17:43;;;;;;;;;;;13.10;70.00;;;8.74;100.00;93462.66;5009089;28;19909;-48
2023/10/27 01:20:10;;;;;;;;;;;13.10;70.00;;;8.71;100.00;93452.63;5011138;28;19916;-47
2023/10/27 01:22:47;;;;;;;;;;;13.10;70.00;;;8.62;100.00;93457.13;5009861;28;19960;-52
2023/10/27 01:25:16;;;;;;;;;;;13.10;70.00;;;8.67;100.00;93450.88;5008834;28;19940;-48
2023/10/27 01:27:43;;;;;;;;;;;13.10;70.00;;;8.68;100.00;93457.75;4998475;28;20324;-45
2023/10/27 01:30:10;;;;;;;;;;;13.10;70.00;;;8.67;100.00;93450.88;5004814;28;19909;-49
2023/10/27 01:32:37;;;;;;;;;;;13.10;70.80;;;8.68;100.00;93453.25;5013028;28;20000;-47
2023/10/27 01:35:03;;;;;;;;;;;13.10;70.00;;;8.68;100.00;93449.78;5013509;28;20000;-49
2023/10/27 01:37:29;;;;;;;;;;;13.10;70.00;;;8.66;100.00;93444.78;5015128;28;19913;-47
2023/10/27 01:39:56;;;;;;;;;;;13.10;70.00;;;8.69;100.00;93438.09;5014877;28;19916;-47
2023/10/27 01:42:23;;;;;;;;;;;13.10;69.90;;;8.71;100.00;93447.34;5013681;28;19909;-47
2023/10/27 01:44:50;;;;;;;;;;;13.20;70.00;;;8.70;100.00;93434.34;5013371;28;19913;-47
2023/10/27 01:47:15;;;;;;;;;;;13.10;69.90;;;8.72;100.00;93434.84;5013554;28;20346;-49
2023/10/27 01:49:41;;;;;;;;;;;13.10;70.00;;;8.72;100.00;93438.28;5014979;28;19909;-49
2023/10/27 01:52:07;;;;;;;;;;;13.20;70.00;;;8.73;100.00;93431.09;5011555;28;19909;-47
2023/10/27 01:54:33;;;;;;;;;;;13.20;70.00;;;8.69;100.00;93428.25;5013649;28;19972;-47
2023/10/27 01:56:58;;;;;;;;;;;13.20;70.00;;;8.70;100.00;93429.81;5014592;28;20335;-47
2023/10/27 01:59:29;;;;;;;;;;;13.20;70.00;;;8.70;100.00;93429.81;5013648;28;19909;-47
2023/10/27 02:01:54;;;;;;;;;;;13.20;70.00;;;8.70;100.00;93421.06;5014465;28;20284;-46
2023/10/27 02:04:20;;;;;;;;;;;13.20;70.00;;;8.67;100.00;93416.38;5011750;28;19913;-47
2023/10/27 02:06:47;;;;;;;;;;;13.20;70.00;;;8.71;100.00;93417.31;5014347;28;19920;-51
2023/10/27 02:09:14;;;;;;;;;;;13.10;70.00;;;8.70;100.00;93418.44;5014053;28;19913;-47
2023/10/27 02:11:40;;;;;;;;;;;13.20;70.00;;;8.70;100.00;93423.72;5006807;28;20257;-46
2023/10/27 02:14:05;;;;;;;;;;;13.20;70.00;;;8.66;100.00;93417.47;5014001;28;19920;-48
2023/10/27 02:16:31;;;;;;;;;;;13.20;70.00;;;8.69;100.00;93427.47;5013309;28;20024;-48
2023/10/27 02:18:57;;;;;;;;;;;13.20;70.00;;;8.71;100.00;93427.94;5013860;28;19908;-47
2023/10/27 02:21:23;;;;;;;;;;;13.20;69.90;;;8.73;100.00;93428.44;5014196;28;19912;-49
2023/10/27 02:23:48;;;;;;;;;;;13.20;70.00;;;8.75;100.00;93428.94;5012052;28;19917;-46
2023/10/27 02:26:14;;;;;;;;;;;13.20;70.00;;;8.74;100.00;93427.34;5012516;28;20004;-50
2023/10/27 02:28:40;;;;;;;;;;;13.20;70.10;;;8.71;100.00;93433.25;5013015;28;19913;-46
2023/10/27 02:31:06;;;;;;;;;;;13.20;70.00;;;8.66;100.00;93442.13;5013663;28;19917;-46
2023/10/27 02:33:32;;;;;;;;;;;13.20;70.00;;;8.65;100.00;93463.66;5013583;28;19944;-51
2023/10/27 02:35:57;;;;;;;;;;;13.20;70.00;;;8.67;100.00;93462.28;5012935;28;19966;-47
2023/10/27 02:38:23;;;;;;;;;;;13.20;70.10;;;8.70;100.00;93445.75;5013743;28;19909;-46
2023/10/27 02:40:49;;;;;;;;;;;13.20;70.20;;;8.72;100.00;93448.88;5012730;28;19909;-47
2023/10/27 02:43:15;;;;;;;;;;;13.10;70.20;;;8.73;100.00;93449.66;5012990;28;19914;-49
2023/10/27 02:45:40;;;;;;;;;;;13.20;70.20;;;8.75;100.00;93444.84;5013081;28;19954;-46
2023/10/27 02:48:06;;;;;;;;;;;13.10;70.20;;;8.76;100.00;93451.72;5012352;28;19920;-47
2023/10/27 02:50:32;;;;;;;;;;;13.20;70.30;;;8.71;100.00;93446.53;5013807;28;19909;-46
2023/10/27 02:52:58;;;;;;;;;;;13.20;70.30;;;8.73;100.00;93454.97;5011865;28;20384;-46
2023/10/27 02:55:24;;;;;;;;;;;13.20;70.30;;;8.71;100.00;93450.00;5013306;28;19909;-49
2023/10/27 02:57:50;;;;;;;;;;;13.20;70.30;;;8.76;100.00;93446.41;5013246;28;19909;-49
2023/10/27 03:00:16;;;;;;;;;;;13.20;70.40;;;8.77;100.00;93450.63;5012020;28;19913;-46
2023/10/27 03:02:41;;;;;;;;;;;13.20;70.40;;;8.79;100.00;93449.22;5012882;28;19932;-51
2023/10/27 03:05:08;;;;;;;;;;;13.20;70.40;;;8.81;100.00;93451.59;5006431;28;20356;-48
2023/10/27 03:07:34;;;;;;;;;;;13.20;70.40;;;8.83;100.00;93453.94;5013373;28;19912;-48
2023/10/27 03:10:00;;;;;;;;;;;13.20;70.40;;;8.82;100.00;93447.84;5012427;28;19944;-51
2023/10/27 03:12:25;;;;;;;;;;;13.30;71.20;;;8.83;100.00;93445.97;5010030;28;20007;-46
2023/10/27 03:14:51;;;;;;;;;;;13.30;70.40;;;8.84;100.00;93451.00;5012834;28;20253;-48
2023/10/27 03:17:17;;;;;;;;;;;13.30;70.30;;;8.87;100.00;93441.59;5011784;28;19916;-47
2023/10/27 03:19:43;;;;;;;;;;;13.30;70.40;;;8.88;100.00;93435.22;5012961;28;20004;-48
2023/10/27 03:22:09;;;;;;;;;;;13.40;70.40;;;8.86;100.00;93440.81;5011796;28;19915;-51
2023/10/27 03:24:34;;;;;;;;;;;13.40;71.10;;;8.87;100.00;93444.25;5012314;28;20000;-48
2023/10/27 03:27:01;;;;;;;;;;;13.40;70.30;;;8.86;100.00;93446.13;5011297;28;19916;-46
2023/10/27 03:29:27;;;;;;;;;;;13.40;70.20;;;8.84;100.00;93436.91;5011891;28;20356;-46
2023/10/27 03:31:53;;;;;;;;;;;13.40;70.20;;;8.83;100.00;93438.78;5012486;28;19946;-46
2023/10/27 03:34:18;;;;;;;;;;;13.40;70.10;;;8.86;100.00;93445.34;5011676;28;19909;-47
2023/10/27 03:36:44;;;;;;;;;;;13.40;70.10;;;8.83;100.00;93438.78;5012593;28;19916;-48
2023/10/27 03:39:10;;;;;;;;;;;13.40;70.20;;;8.82;100.00;93439.09;5012314;28;20002;-50
2023/10/27 03:41:36;;;;;;;;;;;13.40;70.10;;;8.84;100.00;93427.09;5011633;28;20295;-48
2023/10/27 03:44:02;;;;;;;;;;;13.30;70.10;;;8.86;100.00;93424.91;5012137;28;19920;-48
2023/10/27 03:46:28;;;;;;;;;;;13.40;70.20;;;8.87;100.00;93429.13;5011467;28;19924;-49
2023/10/27 03:48:55;;;;;;;;;;;13.30;70.20;;;8.85;100.00;93422.56;5012504;28;20323;-48
2023/10/27 03:51:21;;;;;;;;;;;13.30;70.20;;;8.85;100.00;93427.88;5012315;28;19948;-49
2023/10/27 03:53:47;;;;;;;;;;;13.30;70.20;;;8.80;100.00;93420.81;5010163;28;19997;-50
2023/10/27 03:56:13;;;;;;;;;;;13.30;70.20;;;8.79;100.00;93427.22;5011766;28;19909;-49
2023/10/27 03:58:38;;;;;;;;;;;13.30;70.20;;;8.78;100.00;93437.06;5011369;28;20054;-51
2023/10/27 04:01:05;;;;;;;;;;;13.30;70.20;;;8.78;100.00;93437.06;5011923;28;19909;-48
2023/10/27 04:03:31;;;;;;;;;;;13.30;70.20;;;8.80;100.00;93447.34;5011947;28;19913;-49
2023/10/27 04:05:58;;;;;;;;;;;13.30;70.30;;;8.81;100.00;93451.59;5011394;28;19909;-46
2023/10/27 04:08:25;;;;;;;;;;;13.30;70.30;;;8.77;100.00;93446.13;5012178;28;19909;-48
2023/10/27 04:10:51;;;;;;;;;;;13.30;70.40;;;8.85;100.00;93449.88;5010842;28;19974;-46
2023/10/27 04:13:17;;;;;;;;;;;13.30;70.60;;;8.90;100.00;93447.13;5011913;28;20375;-46
2023/10/27 04:15:44;;;;;;;;;;;13.30;70.60;;;8.92;100.00;93454.75;5011843;28;19909;-46
2023/10/27 04:18:10;;;;;;;;;;;13.30;70.70;;;8.93;100.00;93464.28;5011163;28;19909;-49
2023/10/27 04:20:38;;;;;;;;;;;13.30;70.80;;;8.94;100.00;93464.00;5011878;28;19909;-46
2023/10/27 04:23:04;;;;;;;;;;;13.30;71.00;;;8.99;100.00;93477.16;5010656;28;19913;-49
2023/10/27 04:25:30;;;;;;;;;;;13.30;71.10;;;9.06;100.00;93473.25;5011518;28;19909;-47
2023/10/27 04:27:55;;;;;;;;;;;13.40;71.40;;;9.11;100.00;93473.91;5011709;28;19967;-47
2023/10/27 04:30:21;;;;;;;;;;;13.40;71.50;;;9.15;100.00;93479.38;5010713;28;20426;-49
2023/10/27 04:32:47;;;;;;;;;;;13.40;71.60;;;9.20;100.00;93487.22;5011737;28;20417;-47
2023/10/27 04:35:13;;;;;;;;;;;13.40;71.50;;;9.21;100.00;93492.25;5010855;28;19916;-47
2023/10/27 04:37:39;;;;;;;;;;;13.50;71.60;;;9.20;100.00;93498.63;5011913;28;20415;-49
2023/10/27 04:40:06;;;;;;;;;;;13.50;71.70;;;9.25;100.00;93503.03;5011307;28;19945;-51
2023/10/27 04:42:32;;;;;;;;;;;13.50;71.70;;;9.29;100.00;93497.91;5009523;28;19936;-46
2023/10/27 04:44:59;;;;;;;;;;;13.60;71.70;;;9.26;100.00;93502.72;5011707;28;19921;-47
2023/10/27 04:47:24;;;;;;;;;;;13.60;71.70;;;9.30;100.00;93508.19;5009616;28;19909;-46
2023/10/27 04:49:52;;;;;;;;;;;13.60;71.80;;;9.32;100.00;93510.56;5011605;28;20380;-46
2023/10/27 04:52:18;;;;;;;;;;;13.60;71.80;;;9.32;100.00;93510.56;5009597;28;19948;-48
2023/10/27 04:54:43;;;;;;;;;;;13.60;71.90;;;9.39;100.00;93510.91;5005108;28;19960;-47
2023/10/27 04:57:09;;;;;;;;;;;13.70;72.10;;;9.42;100.00;93511.06;5011896;28;19909;-46
2023/10/27 04:59:35;;;;;;;;;;;13.70;72.10;;;9.46;100.00;93520.00;5010314;28;20439;-46
2023/10/27 05:02:01;;;;;;;;;;;13.80;72.20;;;9.48;100.00;93528.44;5011554;28;20347;-46
2023/10/27 05:04:27;;;;;;;;;;;13.80;72.20;;;9.52;100.00;93533.16;5010195;28;20291;-50
2023/10/27 05:06:53;;;;;;;;;;;13.80;72.30;;;9.51;100.00;93529.72;5011953;28;19909;-50
2023/10/27 05:09:18;;;;;;;;;;;13.80;72.30;;;9.51;100.00;93524.41;5015362;28;19919;-47
2023/10/27 05:11:45;;;;;;;;;;;13.80;72.40;;;9.53;100.00;93532.03;5012460;28;19909;-48
2023/10/27 05:14:13;;;;;;;;;;;13.90;72.60;;;9.55;100.00;93538.63;5015122;28;19955;-47
2023/10/27 05:16:39;;;;;;;;;;;13.90;72.70;;;9.58;100.00;93542.53;5014169;28;19909;-47
2023/10/27 05:19:06;;;;;;;;;;;13.90;72.80;;;9.60;100.00;93551.78;5012819;28;19913;-49
2023/10/27 05:21:32;;;;;;;;;;;13.90;72.90;;;9.61;100.00;93552.56;5015056;28;20332;-46
2023/10/27 05:23:58;;;;;;;;;;;13.90;72.90;;;9.58;100.00;93556.63;5010262;28;19944;-46
2023/10/27 05:26:24;;;;;;;;;;;13.90;72.90;;;9.61;100.00;93571.16;5008455;28;19996;-46
2023/10/27 05:28:52;;;;;;;;;;;13.90;72.80;;;9.58;100.00;93574.44;4999721;28;19909;-50
2023/10/27 05:31:18;;;;;;;;;;;13.90;72.80;;;9.59;100.00;93583.97;5009378;28;19909;-49
2023/10/27 05:33:44;;;;;;;;;;;13.90;72.80;;;9.63;100.00;93598.25;4999924;28;20279;-50
2023/10/27 05:36:10;;;;;;;;;;;13.90;72.70;;;9.62;100.00;93601.97;5004175;28;20347;-49
2023/10/27 05:38:36;;;;;;;;;;;13.90;72.70;;;9.61;100.00;93619.03;4997253;28;20324;-46
2023/10/27 05:41:03;;;;;;;;;;;13.90;72.70;;;9.56;100.00;93616.47;5005487;28;19916;-46
2023/10/27 05:43:29;;;;;;;;;;;13.90;72.60;;;9.52;100.00;93618.19;5009346;28;19945;-46
2023/10/27 05:45:55;;;;;;;;;;;13.80;72.40;;;9.33;100.00;93615.75;4999784;28;19944;-46
2023/10/27 05:48:21;;;;;;;;;;;13.80;72.30;;;9.26;100.00;93613.53;5012136;28;19917;-46
2023/10/27 05:50:47;;;;;;;;;;;13.70;72.30;;;9.17;100.00;93612.69;5002386;28;19913;-46
2023/10/27 05:53:15;;;;;;;;;;;13.70;72.30;;;9.11;100.00;93621.84;5005891;28;19924;-46
2023/10/27 05:55:42;;;;;;;;;;;13.60;72.20;;;9.04;100.00;93628.38;5004294;28;19952;-46
2023/10/27 05:58:07;;;;;;;;;;;13.50;72.30;;;9.04;100.00;93639.00;5003784;28;19909;-47
2023/10/27 06:00:33;;;;;;;;;;;13.50;72.40;;;9.08;100.00;93635.75;5009272;28;20368;-46
2023/10/27 06:02:59;;;;;;;;;;;13.40;72.30;;;9.09;100.00;93642.63;5003697;28;19915;-46
2023/10/27 06:05:25;;;;;;;;;;;13.40;72.40;;;9.08;100.00;93638.41;5004393;28;19916;-47
2023/10/27 06:07:51;;;;;;;;;;;13.40;72.50;;;9.05;100.00;93653.06;5009359;28;19917;-46
2023/10/27 06:10:18;;;;;;;;;;;13.40;72.60;;;9.00;100.00;93653.97;4999917;28;19909;-45
2023/10/27 06:12:44;;;;;;;;;;;13.40;72.60;;;9.03;100.00;93660.56;5004851;28;19916;-47
2023/10/27 06:15:09;;;;;;;;;;;13.30;72.60;;;9.01;100.00;93660.84;4999125;28;19909;-46
2023/10/27 06:17:35;;;;;;;;;;;13.30;72.60;;;9.06;100.00;93661.81;5000006;28;19959;-48
2023/10/27 06:20:02;;;;;;;;;;;13.30;72.60;;;9.04;100.00;93662.13;5001566;28;19935;-50
2023/10/27 06:22:29;;;;;;;;;;;13.30;72.60;;;9.05;100.00;93671.66;5008755;28;19910;-47
2023/10/27 06:24:55;;;;;;;;;;;13.40;72.70;;;9.08;100.00;93680.91;4996672;28;19913;-45
2023/10/27 06:27:21;;;;;;;;;;;13.30;72.70;;;9.09;100.00;93690.41;5001041;28;20063;-46
2023/10/27 06:29:47;;;;;;;;;;;13.40;72.70;;;9.03;100.00;93693.22;4997074;28;20331;-46
2023/10/27 06:32:14;;;;;;;;;;;13.40;72.70;;;9.01;100.00;93697.25;5000908;28;19913;-48
2023/10/27 06:34:40;;;;;;;;;;;13.40;72.70;;;9.06;100.00;93704.31;5002515;28;19954;-48
2023/10/27 06:37:06;;;;;;;;;;;13.40;72.70;;;9.07;100.00;93706.66;4996080;28;20330;-46
2023/10/27 06:39:33;;;;;;;;;;;13.40;72.70;;;9.13;100.00;93713.44;5000803;28;19986;-48
2023/10/27 06:41:58;;;;;;;;;;;13.50;72.80;;;9.15;100.00;93718.44;5008016;28;19962;-47
2023/10/27 06:44:25;;;;;;;;;;;13.60;72.70;;;9.19;100.00;93708.81;4998354;28;20380;-49
2023/10/27 06:46:53;;;;;;;;;;;13.60;72.60;;;9.20;100.00;93715.69;5007945;28;20369;-49
2023/10/27 06:49:19;;;;;;;;;;;13.70;72.60;;;9.22;100.00;93730.25;5028327;23;19929;-52
2023/10/27 06:51:47;;;;;;;;;;;13.70;72.50;;;9.26;100.00;93727.75;5011593;28;20000;-51
2023/10/27 06:54:14;;;;;;;;;;;13.80;72.50;;;9.13;100.00;93725.94;5011293;28;20379;-52
2023/10/27 06:56:40;;;;;;;;;;;13.90;72.60;;;9.17;100.00;93726.91;5011570;28;20020;-52
2023/10/27 06:59:05;;;;;;;;;;;13.80;72.40;;;9.15;100.00;93731.72;5021653;28;20004;-53
2023/10/27 07:01:31;;;;;;;;;;;13.90;72.30;;;9.05;100.00;93735.38;5017317;28;19915;-52
2023/10/27 07:03:58;;;;;;;;;;;13.80;72.10;;;9.02;100.00;93725.38;5028102;28;19922;-53
2023/10/27 07:06:24;;;;;;;;;;;13.80;72.10;;;8.95;100.00;93732.97;5026561;28;19916;-51
2023/10/27 07:08:50;;;;;;;;;;;13.70;72.00;;;8.90;100.00;93725.09;5017633;28;19963;-49
2023/10/27 07:11:16;;;;;;;;;;;13.70;72.00;;;8.92;100.00;93739.66;5027057;28;20372;-52
2023/10/27 07:13:42;;;;;;;;;;;13.70;71.90;;;9.02;100.00;93744.75;5023566;28;19962;-50
2023/10/27 07:16:08;;;;;;;;;;;13.80;71.90;;;9.19;100.00;93748.66;5019477;28;20299;-51
2023/10/27 07:18:34;;;;;;;;;;;13.90;71.90;;;9.39;100.00;93753.50;5026326;28;19954;-50
2023/10/27 07:21:00;;;;;;;;;;;14.20;71.70;;;9.54;100.00;93770.19;5024306;28;19955;-51
2023/10/27 07:23:25;;;;;;;;;;;14.40;71.60;;;9.62;100.00;93769.44;5023587;28;20351;-53
2023/10/27 07:25:52;;;;;;;;;;;14.60;71.30;;;9.69;100.00;93764.50;5025464;28;19918;-50
2023/10/27 07:28:18;;;;;;;;;;;14.80;70.90;;;9.71;100.00;93780.94;5023247;28;19927;-51
2023/10/27 07:30:44;;;;;;;;;;;14.80;70.60;;;9.67;100.00;93783.41;5021659;28;19909;-50
2023/10/27 07:33:10;;;;;;;;;;;14.80;70.40;;;9.70;100.00;93782.03;5020410;28;19952;-50
2023/10/27 07:35:36;;;;;;;;;;;14.80;70.20;;;9.60;100.00;93784.94;5026455;28;19909;-52
2023/10/27 07:38:03;;;;;;;;;;;14.70;70.00;;;9.56;100.00;93784.75;5017931;28;19908;-50
2023/10/27 07:40:30;;;;;;;;;;;14.60;69.90;;;9.63;100.00;93782.44;5029802;28;20155;-49
2023/10/27 07:42:58;;;;;;;;;;;14.60;69.80;;;9.65;100.00;93788.25;5020212;28;19924;-51
2023/10/27 07:45:25;;;;;;;;;;;14.60;69.80;;;9.68;100.00;93785.00;5027899;28;19913;-50
2023/10/27 07:47:51;;;;;;;;;;;14.70;69.80;;;9.81;100.00;93782.56;5022104;28;19931;-53
2023/10/27 07:50:17;;;;;;;;;;;14.70;69.70;;;9.90;100.00;93781.53;5029550;28;20303;-49
2023/10/27 07:52:45;;;;;;;;;;;14.90;69.70;;;10.05;100.00;93776.91;5022886;28;19909;-49
2023/10/27 07:55:11;;;;;;;;;;;15.10;69.30;;;10.46;100.00;93779.34;5019883;28;20026;-51
2023/10/27 07:57:37;;;;;;;;;;;15.50;69.20;;;10.52;100.00;93775.44;5026672;28;19909;-51
2023/10/27 08:00:09;;;;;;;;;;;15.80;68.50;;;10.72;100.00;93786.63;5026615;28;19931;-52
2023/10/27 08:02:35;;;;;;;;;;;16.10;67.90;;;10.86;99.46;93795.31;5017804;28;19909;-51
2023/10/27 08:05:01;;;;;;;;;;;16.40;67.40;;;11.02;97.18;93793.78;5024508;28;20256;-52
2023/10/27 08:07:28;;;;;;;;;;;16.60;66.90;;;11.08;97.81;93800.53;5024210;28;19962;-50
2023/10/27 08:09:55;;;;;;;;;;;16.70;66.60;;;11.35;95.33;93806.69;5021212;28;20015;-47
2023/10/27 08:12:21;;;;;;;;;;;17.00;66.10;;;11.63;93.89;93814.41;5026572;28;19943;-50
2023/10/27 08:14:46;;;;;;;;;;;17.40;65.90;;;11.99;92.28;93816.75;5022798;28;19909;-48
2023/10/27 08:17:12;;;;;;;;;;;17.80;65.40;;;12.09;91.33;93827.09;5025979;28;19913;-51
2023/10/27 08:19:39;;;;;;;;;;;18.10;64.70;;;12.17;90.35;93825.53;5022321;28;19909;-47
2023/10/27 08:22:05;;;;;;;;;;;18.40;63.40;;;12.09;86.86;93832.44;5017512;28;19938;-48
2023/10/27 08:24:31;;;;;;;;;;;18.50;62.90;;;12.12;88.35;93829.16;5026652;28;19913;-49
2023/10/27 08:26:57;;;;;;;;;;;18.70;61.70;;;12.04;88.96;93837.97;5016863;28;20421;-48
2023/10/27 08:29:23;;;;;;;;;;;18.70;61.00;;;12.30;86.94;93832.56;5028686;28;19913;-48
2023/10/27 08:31:48;;;;;;;;;;;18.90;60.80;;;12.26;86.48;93837.78;5026527;28;19915;-47
2023/10/27 08:34:14;;;;;;;;;;;18.80;60.40;;;12.07;85.81;93839.22;5014724;28;19916;-47
2023/10/27 08:36:40;;;;;;;;;;;18.60;59.90;;;11.80;86.71;93833.84;5026061;28;20290;-47
2023/10/27 08:39:06;;;;;;;;;;;18.40;59.80;;;11.64;88.59;93846.09;5028283;28;19909;-52
2023/10/27 08:41:36;;;;;;;;;;;18.10;59.50;;;11.55;88.84;93842.63;5021145;28;20359;-51
2023/10/27 08:44:02;;;;;;;;;;;17.90;59.60;;;11.46;89.30;93837.28;5025879;28;20378;-52
2023/10/27 08:46:29;;;;;;;;;;;17.70;59.60;;;11.28;90.10;93838.34;5016691;28;19909;-50
2023/10/27 08:48:55;;;;;;;;;;;17.50;59.50;;;11.28;88.93;93831.16;5028253;28;19924;-52
2023/10/27 08:51:21;;;;;;;;;;;17.40;59.60;;;11.15;89.26;93842.69;5018734;28;19917;-47
2023/10/27 08:53:47;;;;;;;;;;;17.20;59.20;;;11.11;89.72;93837.22;5016339;28;19920;-46
2023/10/27 08:56:13;;;;;;;;;;;17.10;59.30;;;11.19;89.16;93845.53;5019737;28;19928;-51
2023/10/27 08:58:47;;;;;;;;;;;17.10;59.50;;;11.12;89.34;93843.31;5019783;28;19958;-51
2023/10/27 09:01:13;;;;;;;;;;;17.00;59.40;;;11.04;89.40;93844.88;5019031;28;19913;-49
2023/10/27 09:03:40;;;;;;;;;;;16.90;59.20;;;11.01;90.62;93847.38;5023837;28;19951;-51
2023/10/27 09:06:06;;;;;;;;;;;16.90;58.90;;;11.15;91.26;93858.69;5021736;28;20003;-49
2023/10/27 09:08:32;;;;;;;;;;;16.90;59.00;;;11.16;88.78;93848.84;5025983;28;19986;-48
2023/10/27 09:10:58;;;;;;;;;;;17.00;59.00;;;11.32;89.68;93853.41;5013606;28;20306;-47
2023/10/27 09:13:24;;;;;;;;;;;17.20;58.80;;;11.65;88.80;93857.53;5027554;28;19909;-46
2023/10/27 09:15:51;;;;;;;;;;;17.50;58.90;;;11.67;89.15;93860.69;5027569;28;20403;-47
2023/10/27 09:18:18;;;;;;;;;;;17.50;58.70;;;11.66;88.37;93861.75;5026164;28;20363;-47
2023/10/27 09:20:52;;;;;;;;;;;17.60;58.60;;;11.71;90.22;93859.72;5021760;28;19908;-48
2023/10/27 09:23:22;;;;;;;;;;;17.60;58.40;;;11.69;87.59;93866.47;5026935;28;19956;-48
2023/10/27 09:25:48;;;;;;;;;;;17.70;58.30;;;11.58;87.03;93864.13;5030930;28;19966;-46
2023/10/27 09:28:14;;;;;;;;;;;17.70;57.70;;;11.63;87.43;93857.09;5030824;28;20286;-49
2023/10/27 09:30:43;;;;;;;;;;;17.80;57.40;;;11.46;86.30;93857.81;5030317;28;19917;-48
2023/10/27 09:33:26;;;;;;;;;;;17.70;57.30;;;11.36;89.57;93869.56;4997832;28;19909;-47
2023/10/27 09:35:53;;;;;;;;;;;17.60;56.70;;;11.47;88.49;93883.38;5028756;28;19909;-47
2023/10/27 09:38:22;;;;;;;;;;;17.50;57.10;;;11.33;88.88;93873.63;5030817;28;19908;-47
2023/10/27 09:40:49;;;;;;;;;;;17.40;57.10;;;11.37;90.33;93873.78;5029930;28;19948;-47
2023/10/27 09:43:15;;;;;;;;;;;17.30;57.30;;;11.26;90.70;93880.53;5030856;28;19952;-47
2023/10/27 09:45:53;;;;;;;;;;;17.10;57.40;;;11.22;91.33;93880.38;5030608;28;19951;-49
2023/10/27 09:48:28;;;;;;;;;;;17.00;57.60;;;11.08;94.95;93887.69;5025960;28;19923;-46
2023/10/27 09:51:06;;;;;;;;;;;16.80;57.80;;;10.93;99.02;93894.19;5030775;28;20374;-49
2023/10/27 09:53:33;;;;;;;;;;;16.60;58.10;;;10.76;99.15;93886.94;5024234;28;19913;-47
2023/10/27 09:56:01;;;;;;;;;;;16.40;58.60;;;10.86;100.00;93893.84;5033248;28;19932;-46
2023/10/27 09:58:38;;;;;;;;;;;16.20;58.90;;;10.80;100.00;93898.53;5046886;28;19934;-47
2023/10/27 10:01:05;;;;;;;;;;;16.10;59.30;;;10.79;100.00;93898.84;5023805;28;19959;-48
2023/10/27 10:03:32;;;;;;;;;;;16.20;59.60;;;10.80;100.00;93900.41;5025220;28;19913;-48
2023/10/27 10:06:15;;;;;;;;;;;16.30;59.80;;;10.91;100.00;93914.25;5033080;28;20443;-48
2023/10/27 10:09:14;;;;;;;;;;;16.30;60.00;;;10.96;100.00;93906.13;5032059;28;19909;-48
2023/10/27 10:11:54;;;;;;;;;;;16.30;60.30;;;11.05;100.00;93917.59;5022387;28;20331;-48
2023/10/27 10:14:39;;;;;;;;;;;16.40;60.40;;;11.07;100.00;93916.22;5019348;28;19909;-48
2023/10/27 10:17:05;;;;;;;;;;;16.50;60.50;;;11.07;100.00;93932.19;5032145;28;19923;-48
2023/10/27 10:19:55;;;;;;;;;;;16.60;60.70;;;11.13;100.00;93921.41;5026354;28;20015;-52
2023/10/27 10:22:41;;;;;;;;;;;16.70;60.60;;;11.15;100.00;93927.19;5029791;28;20008;-48
2023/10/27 10:25:26;;;;;;;;;;;16.80;60.60;;;11.04;100.00;93930.16;5027799;28;21034;-51
2023/10/27 10:28:07;;;;;;;;;;;16.70;60.30;;;11.17;100.00;93928.47;5028417;28;20384;-55
2023/10/27 10:30:44;;;;;;;;;;;16.70;60.40;;;11.24;99.06;93920.03;5031689;28;19935;-54
2023/10/27 10:33:29;;;;;;;;;;;16.70;60.60;;;11.23;98.78;93929.91;5034073;28;19962;-51
2023/10/27 10:36:18;;;;;;;;;;;16.80;60.40;;;11.53;99.86;93932.81;5025989;28;19909;-50
2023/10/27 10:38:55;;;;;;;;;;;17.00;60.50;;;11.55;97.16;93922.63;5023178;28;19909;-53
2023/10/27 10:41:53;;;;;;;;;;;17.20;60.40;;;11.61;94.82;93924.03;5026675;28;20367;-48
2023/10/27 10:44:19;;;;;;;;;;;17.40;60.00;;;11.67;95.65;93917.47;5026462;28;19913;-48
2023/10/27 10:46:46;;;;;;;;;;;17.50;59.50;;;11.80;93.93;93918.44;5021378;28;19931;-48
2023/10/27 10:49:26;;;;;;;;;;;17.80;59.30;;;11.98;91.88;93916.59;5022498;28;19916;-48
2023/10/27 10:51:54;;;;;;;;;;;18.10;58.80;;;12.38;90.99;93909.22;5031615;28;20359;-48
2023/10/27 10:54:30;;;;;;;;;;;18.60;58.50;;;12.86;89.38;93894.03;5030242;28;19916;-48
2023/10/27 10:57:00;;;;;;;;;;;19.30;58.40;;;12.94;87.12;93899.34;5027035;28;20012;-49
2023/10/27 10:59:26;;;;;;;;;;;19.60;58.00;;;12.86;88.23;93910.06;5026833;28;19958;-49
2023/10/27 11:01:56;;;;;;;;;;;19.50;57.40;;;12.84;93.46;93896.22;5033182;28;19909;-50
2023/10/27 11:04:30;;;;;;;;;;;19.60;57.00;;;12.98;92.93;93891.47;5029570;28;20013;-53
2023/10/27 11:07:02;;;;;;;;;;;19.60;57.10;;;12.99;93.15;93898.38;5027950;28;19911;-50
2023/10/27 11:09:28;;;;;;;;;;;19.60;57.20;;;12.99;93.08;93906.41;5032729;28;19909;-49
2023/10/27 11:11:55;;;;;;;;;;;19.40;57.30;;;12.63;96.77;93904.13;5031901;28;19999;-53
2023/10/27 11:14:21;;;;;;;;;;;19.10;57.40;;;12.41;99.72;93895.22;5033063;28;19962;-52
2023/10/27 11:17:03;;;;;;;;;;;18.80;57.40;;;12.14;100.00;93885.66;5026743;28;19909;-50
2023/10/27 11:19:29;;;;;;;;;;;18.50;57.60;;;11.86;100.00;93895.88;5018508;28;19933;-52